Main page
METAR-TAF:

METAR-TAF

Airports :

Heydar Aliyev International Airport

Baku, Azerbaijan

latitude: 40-27N, longitude: 050-04E, elevation: -6 m

Current weather observation

The report was made 23 minutes ago, at 00:30 UTC
Wind 4 kt from the West
Temperature 12°C
Humidity 44%
Pressure 1024 hPa
Visibility 10 km or more
no clouds below 1500 m and no cumulonimbus

METAR: UBBB 260030Z 26004KT CAVOK 12/00 Q1024 R88/D NOSIG

Time: 04:53 (00:53 UTC)

Forecast

The report was made 1 hour and 50 minutes ago, at 23:03 UTC
Forecast valid from 26 at 00 UTC to 26 at 24 UTC
Wind 10 kt from the Southwest
Visibility 10 km or more
no clouds below 1500 m and no cumulonimbus
Temporary
from 26 at 00 UTC to 26 at 04 UTC
Wind 4 kt from variable directions
Temporary
from 26 at 04 UTC to 26 at 15 UTC
Wind 12 kt from the South
Scattered clouds at a height of 2500 ft

TAF: UBBB 252303Z 2600/2624 23010KT CAVOK TX19/2610Z TN10/2603Z TEMPO 2600/2604 VRB04KT TEMPO 2604/2615 18012KT SCT025

Weather observations and forecasts of more than 4000 airports (METAR and TAF reports).

The available stations are represented by yellow and red dots on the map.

Hover mouse over dot to see the name of the station.

Then click to see weather observations and forecasts.

To change the map : click on the green buttons with a black cross to zoom in, on the green button with a dash to zoom out, or on the green arrows for adjacent maps.


METAR-TAF: